sensor_id;sensor_type;location;lat;lon;timestamp;temperature;humidity
24468;DHT22;12634;50.852;5.676;2022-09-09T00:01:54;14.80;99.90
24468;DHT22;12634;50.852;5.676;2022-09-09T00:04:27;14.80;99.90
24468;DHT22;12634;50.852;5.676;2022-09-09T00:07:09;14.70;99.90
24468;DHT22;12634;50.852;5.676;2022-09-09T00:09:45;14.60;99.90
24468;DHT22;12634;50.852;5.676;2022-09-09T00:12:20;14.70;99.90
24468;DHT22;12634;50.852;5.676;2022-09-09T00:14:55;14.70;99.90
24468;DHT22;12634;50.852;5.676;2022-09-09T00:17:37;14.60;99.90
24468;DHT22;12634;50.852;5.676;2022-09-09T00:20:12;14.50;99.90
24468;DHT22;12634;50.852;5.676;2022-09-09T00:22:43;14.50;99.90
24468;DHT22;12634;50.852;5.676;2022-09-09T00:25:18;14.50;99.90
24468;DHT22;12634;50.852;5.676;2022-09-09T00:27:48;14.60;99.90
24468;DHT22;12634;50.852;5.676;2022-09-09T00:30:17;14.60;99.90
24468;DHT22;12634;50.852;5.676;2022-09-09T00:32:48;14.50;99.90
24468;DHT22;12634;50.852;5.676;2022-09-09T00:35:18;14.50;99.90
24468;DHT22;12634;50.852;5.676;2022-09-09T00:37:50;14.40;99.90
24468;DHT22;12634;50.852;5.676;2022-09-09T00:40:24;14.40;99.90
24468;DHT22;12634;50.852;5.676;2022-09-09T00:43:10;14.30;99.90
24468;DHT22;12634;50.852;5.676;2022-09-09T00:46:12;14.40;99.90
24468;DHT22;12634;50.852;5.676;2022-09-09T00:48:50;14.40;99.90
24468;DHT22;12634;50.852;5.676;2022-09-09T00:51:29;14.40;99.90
24468;DHT22;12634;50.852;5.676;2022-09-09T00:54:16;14.40;99.90
24468;DHT22;12634;50.852;5.676;2022-09-09T00:57:01;14.30;99.90
24468;DHT22;12634;50.852;5.676;2022-09-09T00:59:40;14.30;99.90
24468;DHT22;12634;50.852;5.676;2022-09-09T01:02:19;14.20;99.90
24468;DHT22;12634;50.852;5.676;2022-09-09T01:04:49;14.30;99.90
24468;DHT22;12634;50.852;5.676;2022-09-09T01:07:17;14.20;99.90
24468;DHT22;12634;50.852;5.676;2022-09-09T01:09:51;14.20;99.90
24468;DHT22;12634;50.852;5.676;2022-09-09T01:12:25;14.30;99.90
24468;DHT22;12634;50.852;5.676;2022-09-09T01:14:55;14.30;99.90
24468;DHT22;12634;50.852;5.676;2022-09-09T01:17:25;14.40;99.90
24468;DHT22;12634;50.852;5.676;2022-09-09T01:20:04;14.30;99.90
24468;DHT22;12634;50.852;5.676;2022-09-09T01:22:36;14.40;99.90
24468;DHT22;12634;50.852;5.676;2022-09-09T01:25:28;14.40;99.90
24468;DHT22;12634;50.852;5.676;2022-09-09T01:28:00;14.50;99.90
24468;DHT22;12634;50.852;5.676;2022-09-09T01:30:28;14.50;99.90
24468;DHT22;12634;50.852;5.676;2022-09-09T01:32:57;14.60;99.90
24468;DHT22;12634;50.852;5.676;2022-09-09T01:35:39;14.60;99.90
24468;DHT22;12634;50.852;5.676;2022-09-09T01:38:09;14.50;99.90
24468;DHT22;12634;50.852;5.676;2022-09-09T01:40:36;14.60;99.90
24468;DHT22;12634;50.852;5.676;2022-09-09T01:43:05;14.50;99.90
24468;DHT22;12634;50.852;5.676;2022-09-09T01:45:33;14.70;99.90
24468;DHT22;12634;50.852;5.676;2022-09-09T01:48:01;14.70;99.90
24468;DHT22;12634;50.852;5.676;2022-09-09T01:50:29;14.70;99.90
24468;DHT22;12634;50.852;5.676;2022-09-09T01:52:58;14.70;99.90
24468;DHT22;12634;50.852;5.676;2022-09-09T01:55:30;14.70;99.90
24468;DHT22;12634;50.852;5.676;2022-09-09T01:58:09;14.70;99.90
24468;DHT22;12634;50.852;5.676;2022-09-09T02:00:45;14.80;99.90
24468;DHT22;12634;50.852;5.676;2022-09-09T02:03:21;14.70;99.90
24468;DHT22;12634;50.852;5.676;2022-09-09T02:05:58;14.70;99.90
24468;DHT22;12634;50.852;5.676;2022-09-09T02:08:33;14.80;99.90
24468;DHT22;12634;50.852;5.676;2022-09-09T02:11:05;14.80;99.90
24468;DHT22;12634;50.852;5.676;2022-09-09T02:13:36;14.80;99.90
24468;DHT22;12634;50.852;5.676;2022-09-09T02:16:07;14.80;99.90
24468;DHT22;12634;50.852;5.676;2022-09-09T02:18:40;14.90;99.90
24468;DHT22;12634;50.852;5.676;2022-09-09T02:21:11;14.90;99.90
24468;DHT22;12634;50.852;5.676;2022-09-09T02:23:40;15.00;99.90
24468;DHT22;12634;50.852;5.676;2022-09-09T02:26:10;15.10;99.90
24468;DHT22;12634;50.852;5.676;2022-09-09T02:28:40;15.10;99.90
24468;DHT22;12634;50.852;5.676;2022-09-09T02:31:08;15.00;99.90
24468;DHT22;12634;50.852;5.676;2022-09-09T02:33:39;15.10;99.90
24468;DHT22;12634;50.852;5.676;2022-09-09T02:36:09;15.10;99.90
24468;DHT22;12634;50.852;5.676;2022-09-09T02:38:40;15.00;99.90
24468;DHT22;12634;50.852;5.676;2022-09-09T02:41:09;15.00;99.90
24468;DHT22;12634;50.852;5.676;2022-09-09T02:43:36;14.90;99.90
24468;DHT22;12634;50.852;5.676;2022-09-09T02:46:11;15.00;99.90
24468;DHT22;12634;50.852;5.676;2022-09-09T02:48:51;14.90;99.90
24468;DHT22;12634;50.852;5.676;2022-09-09T02:51:25;14.90;99.90
24468;DHT22;12634;50.852;5.676;2022-09-09T02:54:01;14.80;99.90
24468;DHT22;12634;50.852;5.676;2022-09-09T02:56:33;14.80;99.90
24468;DHT22;12634;50.852;5.676;2022-09-09T02:59:03;14.80;99.90
24468;DHT22;12634;50.852;5.676;2022-09-09T03:01:32;14.80;99.90
24468;DHT22;12634;50.852;5.676;2022-09-09T03:03:59;14.90;99.90
24468;DHT22;12634;50.852;5.676;2022-09-09T03:06:26;14.80;99.90
24468;DHT22;12634;50.852;5.676;2022-09-09T03:08:53;14.90;99.90
24468;DHT22;12634;50.852;5.676;2022-09-09T03:11:21;14.80;99.90
24468;DHT22;12634;50.852;5.676;2022-09-09T03:13:48;14.80;99.90
24468;DHT22;12634;50.852;5.676;2022-09-09T03:16:15;14.80;99.90
24468;DHT22;12634;50.852;5.676;2022-09-09T03:18:44;14.80;99.90
24468;DHT22;12634;50.852;5.676;2022-09-09T03:21:11;14.70;99.90
24468;DHT22;12634;50.852;5.676;2022-09-09T03:23:39;14.70;99.90
24468;DHT22;12634;50.852;5.676;2022-09-09T03:26:06;14.80;99.90
24468;DHT22;12634;50.852;5.676;2022-09-09T03:28:34;14.80;99.90
24468;DHT22;12634;50.852;5.676;2022-09-09T03:31:01;14.70;99.90
24468;DHT22;12634;50.852;5.676;2022-09-09T03:33:29;14.80;99.90
24468;DHT22;12634;50.852;5.676;2022-09-09T03:35:58;14.80;99.90
24468;DHT22;12634;50.852;5.676;2022-09-09T03:38:25;14.90;99.90
24468;DHT22;12634;50.852;5.676;2022-09-09T03:40:55;14.80;99.90
24468;DHT22;12634;50.852;5.676;2022-09-09T03:43:23;14.90;99.90
24468;DHT22;12634;50.852;5.676;2022-09-09T03:45:51;15.00;99.90
24468;DHT22;12634;50.852;5.676;2022-09-09T03:48:19;15.00;99.90
24468;DHT22;12634;50.852;5.676;2022-09-09T03:50:47;15.00;99.90
24468;DHT22;12634;50.852;5.676;2022-09-09T03:53:17;15.00;99.90
24468;DHT22;12634;50.852;5.676;2022-09-09T03:55:45;15.10;99.90
24468;DHT22;12634;50.852;5.676;2022-09-09T03:58:12;15.10;99.90
24468;DHT22;12634;50.852;5.676;2022-09-09T04:00:40;15.10;99.90
24468;DHT22;12634;50.852;5.676;2022-09-09T04:03:08;15.10;99.90
24468;DHT22;12634;50.852;5.676;2022-09-09T04:05:35;15.10;99.90
24468;DHT22;12634;50.852;5.676;2022-09-09T04:08:05;15.10;99.90
24468;DHT22;12634;50.852;5.676;2022-09-09T04:10:34;15.30;99.90
24468;DHT22;12634;50.852;5.676;2022-09-09T04:13:03;15.30;99.90
24468;DHT22;12634;50.852;5.676;2022-09-09T04:15:30;15.30;99.90
24468;DHT22;12634;50.852;5.676;2022-09-09T04:17:58;15.40;99.90
24468;DHT22;12634;50.852;5.676;2022-09-09T04:20:26;15.40;99.90
24468;DHT22;12634;50.852;5.676;2022-09-09T04:22:53;15.40;99.90
24468;DHT22;12634;50.852;5.676;2022-09-09T04:25:20;15.40;99.90
24468;DHT22;12634;50.852;5.676;2022-09-09T04:27:53;15.50;99.90
24468;DHT22;12634;50.852;5.676;2022-09-09T04:30:20;15.40;99.90
24468;DHT22;12634;50.852;5.676;2022-09-09T04:32:48;15.30;99.90
24468;DHT22;12634;50.852;5.676;2022-09-09T04:35:15;15.40;99.90
24468;DHT22;12634;50.852;5.676;2022-09-09T04:37:42;15.40;99.90
24468;DHT22;12634;50.852;5.676;2022-09-09T04:40:10;15.30;99.90
24468;DHT22;12634;50.852;5.676;2022-09-09T04:42:38;15.20;99.90
24468;DHT22;12634;50.852;5.676;2022-09-09T04:45:11;15.40;99.90
24468;DHT22;12634;50.852;5.676;2022-09-09T04:47:39;15.30;99.90
24468;DHT22;12634;50.852;5.676;2022-09-09T04:50:07;15.30;99.90
24468;DHT22;12634;50.852;5.676;2022-09-09T04:52:34;15.40;99.90
24468;DHT22;12634;50.852;5.676;2022-09-09T04:55:03;15.30;99.90
24468;DHT22;12634;50.852;5.676;2022-09-09T04:57:30;15.40;99.90
24468;DHT22;12634;50.852;5.676;2022-09-09T04:59:58;15.50;99.90
24468;DHT22;12634;50.852;5.676;2022-09-09T05:02:28;15.50;99.90
24468;DHT22;12634;50.852;5.676;2022-09-09T05:04:56;15.50;99.90
24468;DHT22;12634;50.852;5.676;2022-09-09T05:07:23;15.50;99.90
24468;DHT22;12634;50.852;5.676;2022-09-09T05:09:52;15.40;99.90
24468;DHT22;12634;50.852;5.676;2022-09-09T05:12:19;15.40;99.90
24468;DHT22;12634;50.852;5.676;2022-09-09T05:14:46;15.40;99.90
24468;DHT22;12634;50.852;5.676;2022-09-09T05:17:13;15.30;99.90
24468;DHT22;12634;50.852;5.676;2022-09-09T05:19:43;15.20;99.90
24468;DHT22;12634;50.852;5.676;2022-09-09T05:22:10;15.20;99.90
24468;DHT22;12634;50.852;5.676;2022-09-09T05:24:38;15.20;99.90
24468;DHT22;12634;50.852;5.676;2022-09-09T05:27:05;15.20;99.90
24468;DHT22;12634;50.852;5.676;2022-09-09T05:29:32;15.20;99.90
24468;DHT22;12634;50.852;5.676;2022-09-09T05:32:00;15.10;99.90
24468;DHT22;12634;50.852;5.676;2022-09-09T05:34:27;15.10;99.90
24468;DHT22;12634;50.852;5.676;2022-09-09T05:36:56;15.20;99.90
24468;DHT22;12634;50.852;5.676;2022-09-09T05:39:23;15.20;99.90
24468;DHT22;12634;50.852;5.676;2022-09-09T05:41:51;15.20;99.90
24468;DHT22;12634;50.852;5.676;2022-09-09T05:44:18;15.20;99.90
24468;DHT22;12634;50.852;5.676;2022-09-09T05:46:45;15.20;99.90
24468;DHT22;12634;50.852;5.676;2022-09-09T05:49:13;15.30;99.90
24468;DHT22;12634;50.852;5.676;2022-09-09T05:51:41;15.40;99.90
24468;DHT22;12634;50.852;5.676;2022-09-09T05:54:11;15.30;99.90
24468;DHT22;12634;50.852;5.676;2022-09-09T05:56:41;15.30;99.90
24468;DHT22;12634;50.852;5.676;2022-09-09T05:59:08;15.40;99.90
24468;DHT22;12634;50.852;5.676;2022-09-09T06:01:36;15.60;99.90
24468;DHT22;12634;50.852;5.676;2022-09-09T06:04:06;15.70;99.90
24468;DHT22;12634;50.852;5.676;2022-09-09T06:06:35;15.70;99.90
24468;DHT22;12634;50.852;5.676;2022-09-09T06:09:06;15.70;99.90
24468;DHT22;12634;50.852;5.676;2022-09-09T06:11:38;15.80;99.90
24468;DHT22;12634;50.852;5.676;2022-09-09T06:14:06;15.80;99.90
24468;DHT22;12634;50.852;5.676;2022-09-09T06:16:34;15.80;99.90
24468;DHT22;12634;50.852;5.676;2022-09-09T06:19:03;15.80;99.90
24468;DHT22;12634;50.852;5.676;2022-09-09T06:21:32;15.90;99.90
24468;DHT22;12634;50.852;5.676;2022-09-09T06:24:00;15.80;99.90
24468;DHT22;12634;50.852;5.676;2022-09-09T06:26:29;15.90;99.90
24468;DHT22;12634;50.852;5.676;2022-09-09T06:28:58;15.90;99.90
24468;DHT22;12634;50.852;5.676;2022-09-09T06:31:27;15.90;99.90
24468;DHT22;12634;50.852;5.676;2022-09-09T06:33:57;15.90;99.90
24468;DHT22;12634;50.852;5.676;2022-09-09T06:36:25;16.00;99.90
24468;DHT22;12634;50.852;5.676;2022-09-09T06:38:53;16.00;99.90
24468;DHT22;12634;50.852;5.676;2022-09-09T06:41:22;16.00;99.90
24468;DHT22;12634;50.852;5.676;2022-09-09T06:43:49;16.00;99.90
24468;DHT22;12634;50.852;5.676;2022-09-09T06:46:19;16.10;99.90
24468;DHT22;12634;50.852;5.676;2022-09-09T06:48:47;16.10;99.90
24468;DHT22;12634;50.852;5.676;2022-09-09T06:51:16;16.20;99.90
24468;DHT22;12634;50.852;5.676;2022-09-09T06:53:45;16.30;99.90
24468;DHT22;12634;50.852;5.676;2022-09-09T06:56:21;16.30;99.90
24468;DHT22;12634;50.852;5.676;2022-09-09T06:58:49;16.40;99.90
24468;DHT22;12634;50.852;5.676;2022-09-09T07:01:20;16.80;99.90
24468;DHT22;12634;50.852;5.676;2022-09-09T07:03:49;17.00;99.90
24468;DHT22;12634;50.852;5.676;2022-09-09T07:06:18;17.00;99.90
24468;DHT22;12634;50.852;5.676;2022-09-09T07:08:49;16.80;99.90
24468;DHT22;12634;50.852;5.676;2022-09-09T07:11:17;17.20;99.90
24468;DHT22;12634;50.852;5.676;2022-09-09T07:13:45;17.80;99.90
24468;DHT22;12634;50.852;5.676;2022-09-09T07:16:13;18.00;99.90
24468;DHT22;12634;50.852;5.676;2022-09-09T07:18:43;18.10;99.90
24468;DHT22;12634;50.852;5.676;2022-09-09T07:21:11;18.20;99.90
24468;DHT22;12634;50.852;5.676;2022-09-09T07:23:39;18.20;99.90
24468;DHT22;12634;50.852;5.676;2022-09-09T07:26:10;18.30;99.90
24468;DHT22;12634;50.852;5.676;2022-09-09T07:28:38;18.10;99.90
24468;DHT22;12634;50.852;5.676;2022-09-09T07:31:06;18.30;99.90
24468;DHT22;12634;50.852;5.676;2022-09-09T07:33:34;18.80;99.90
24468;DHT22;12634;50.852;5.676;2022-09-09T07:36:06;18.50;99.90
24468;DHT22;12634;50.852;5.676;2022-09-09T07:38:38;18.90;99.90
24468;DHT22;12634;50.852;5.676;2022-09-09T07:41:08;19.40;99.90
24468;DHT22;12634;50.852;5.676;2022-09-09T07:43:38;19.20;99.90
24468;DHT22;12634;50.852;5.676;2022-09-09T07:46:06;19.00;99.90
24468;DHT22;12634;50.852;5.676;2022-09-09T07:48:33;18.90;99.90
24468;DHT22;12634;50.852;5.676;2022-09-09T07:51:07;18.60;99.90
24468;DHT22;12634;50.852;5.676;2022-09-09T07:53:36;18.20;99.90
24468;DHT22;12634;50.852;5.676;2022-09-09T07:56:05;17.90;99.90
24468;DHT22;12634;50.852;5.676;2022-09-09T07:58:33;17.80;99.90
24468;DHT22;12634;50.852;5.676;2022-09-09T08:01:00;17.70;99.90
24468;DHT22;12634;50.852;5.676;2022-09-09T08:03:32;17.50;99.90
24468;DHT22;12634;50.852;5.676;2022-09-09T08:06:01;17.50;99.90
24468;DHT22;12634;50.852;5.676;2022-09-09T08:08:30;17.40;99.90
24468;DHT22;12634;50.852;5.676;2022-09-09T08:11:05;17.40;99.90
24468;DHT22;12634;50.852;5.676;2022-09-09T08:13:34;17.50;99.90
24468;DHT22;12634;50.852;5.676;2022-09-09T08:16:06;18.10;99.90
24468;DHT22;12634;50.852;5.676;2022-09-09T08:18:34;18.30;99.90
